createdAt,value
2022-11-20T00:01:24.733Z,98704.13
2022-11-20T00:03:56.779Z,98715.34
2022-11-20T00:06:24.378Z,98712.78
2022-11-20T00:08:52.573Z,98720.84
2022-11-20T00:11:23.684Z,98716.00
2022-11-20T00:13:53.479Z,98716.69
2022-11-20T00:16:23.634Z,98712.78
2022-11-20T00:18:50.852Z,98720.66
2022-11-20T00:21:31.093Z,98717.22
2022-11-20T00:23:59.257Z,98714.38
2022-11-20T00:26:28.137Z,98715.47
2022-11-20T00:28:58.495Z,98716.47
2022-11-20T00:31:26.680Z,98709.19
2022-11-20T00:33:54.289Z,98714.16
2022-11-20T00:36:24.158Z,98703.25
2022-11-20T00:38:56.934Z,98653.50
2022-11-20T00:41:25.117Z,98721.41
2022-11-20T00:43:54.088Z,98718.97
2022-11-20T00:46:23.704Z,98712.47
2022-11-20T00:48:51.352Z,98699.75
2022-11-20T00:51:21.406Z,98702.94
2022-11-20T00:53:50.015Z,98703.88
2022-11-20T00:56:20.444Z,98696.34
2022-11-20T00:58:50.463Z,98682.41
2022-11-20T01:01:20.886Z,98688.00
2022-11-20T01:03:50.783Z,98677.19
2022-11-20T01:06:19.141Z,98686.00
2022-11-20T01:08:47.220Z,98672.34
2022-11-20T01:11:21.069Z,98669.31
2022-11-20T01:13:52.748Z,98677.91
2022-11-20T01:16:25.695Z,98670.13
2022-11-20T01:18:57.531Z,98676.16
2022-11-20T01:21:33.291Z,98671.47
2022-11-20T01:24:01.778Z,98669.13
2022-11-20T01:26:31.657Z,98681.38
2022-11-20T01:29:00.274Z,98686.06
2022-11-20T01:31:31.005Z,98687.66
2022-11-20T01:34:01.364Z,98680.66
2022-11-20T01:36:30.750Z,98669.28
2022-11-20T01:39:01.779Z,98678.88
2022-11-20T01:41:49.613Z,98685.00
2022-11-20T01:44:20.079Z,98685.28
2022-11-20T01:47:00.299Z,98683.22
2022-11-20T01:49:38.954Z,98682.94
2022-11-20T01:52:12.671Z,98671.94
2022-11-20T01:54:48.843Z,98675.97
2022-11-20T01:57:18.557Z,98672.31
2022-11-20T02:00:14.666Z,98670.25
2022-11-20T02:02:49.791Z,98661.28
2022-11-20T02:05:25.119Z,98670.16
2022-11-20T02:07:55.810Z,98671.84
2022-11-20T02:10:23.094Z,98638.28
2022-11-20T02:13:08.414Z,98655.66
2022-11-20T02:15:36.226Z,98650.41
2022-11-20T02:18:06.746Z,98656.25
2022-11-20T02:20:34.236Z,98646.34
2022-11-20T02:23:09.400Z,98630.31
2022-11-20T02:25:38.915Z,98654.63
2022-11-20T02:28:07.250Z,98651.03
2022-11-20T02:30:34.421Z,98654.63
2022-11-20T02:33:02.133Z,98652.19
2022-11-20T02:35:33.251Z,98640.31
2022-11-20T02:38:03.827Z,98638.72
2022-11-20T02:40:31.242Z,98630.28
2022-11-20T02:42:58.770Z,98639.69
2022-11-20T02:45:26.205Z,98645.28
2022-11-20T02:47:54.190Z,98628.69
2022-11-20T02:50:21.498Z,98644.84
2022-11-20T02:52:49.056Z,98646.06
2022-11-20T02:55:16.198Z,98628.88
2022-11-20T02:57:43.769Z,98642.88
2022-11-20T03:00:11.973Z,98636.38
2022-11-20T03:02:39.090Z,98641.13
2022-11-20T03:05:08.227Z,98629.09
2022-11-20T03:07:36.060Z,98624.25
2022-11-20T03:10:07.311Z,98630.56
2022-11-20T03:12:35.163Z,98628.44
2022-11-20T03:15:02.413Z,98638.06
2022-11-20T03:17:31.448Z,98632.31
2022-11-20T03:19:59.865Z,98619.97
2022-11-20T03:22:29.808Z,98620.41
2022-11-20T03:24:57.509Z,98622.72
2022-11-20T03:27:24.977Z,98599.16
2022-11-20T03:29:51.945Z,98621.81
2022-11-20T03:32:19.067Z,98625.16
2022-11-20T03:34:46.154Z,98621.94
2022-11-20T03:37:13.965Z,98625.94
2022-11-20T03:39:41.030Z,98630.25
2022-11-20T03:42:28.117Z,98637.75
2022-11-20T03:44:56.002Z,98627.72
2022-11-20T03:47:23.936Z,98630.94
2022-11-20T03:49:51.190Z,98632.91
2022-11-20T03:52:18.562Z,98643.50
2022-11-20T03:54:45.827Z,98633.47
2022-11-20T03:57:15.488Z,98637.84
2022-11-20T03:59:42.769Z,98635.16
2022-11-20T04:02:09.935Z,98624.09
2022-11-20T04:04:37.071Z,98628.22
2022-11-20T04:07:04.670Z,98626.69
2022-11-20T04:09:32.011Z,98629.41
2022-11-20T04:11:59.236Z,98631.69
2022-11-20T04:14:26.387Z,98638.91
2022-11-20T04:16:53.588Z,98631.28
2022-11-20T04:19:20.844Z,98638.31
2022-11-20T04:21:48.538Z,98643.84
2022-11-20T04:24:18.443Z,98649.84
2022-11-20T04:26:45.619Z,98661.38
2022-11-20T04:29:13.279Z,98667.28
2022-11-20T04:31:40.551Z,98661.19
2022-11-20T04:34:08.579Z,98657.94
2022-11-20T04:36:36.403Z,98665.00
2022-11-20T04:39:07.264Z,98671.56
2022-11-20T04:41:36.752Z,98665.25
2022-11-20T04:44:06.510Z,98668.56
2022-11-20T04:46:37.712Z,98668.97
2022-11-20T04:49:05.372Z,98659.88
2022-11-20T04:51:33.850Z,98650.59
2022-11-20T04:54:01.169Z,98646.28
2022-11-20T04:56:28.418Z,98645.09
2022-11-20T04:58:55.506Z,98647.88
2022-11-20T05:01:25.295Z,98659.94
2022-11-20T05:03:52.699Z,98644.94
2022-11-20T05:06:21.730Z,98650.50
2022-11-20T05:08:48.984Z,98659.53
2022-11-20T05:11:18.420Z,98658.44
2022-11-20T05:13:45.677Z,98648.13
2022-11-20T05:16:15.440Z,98654.53
2022-11-20T05:18:43.574Z,98656.06
2022-11-20T05:21:11.891Z,98664.84
2022-11-20T05:23:39.894Z,98654.47
2022-11-20T05:26:10.035Z,98655.22
2022-11-20T05:28:38.133Z,98647.63
2022-11-20T05:31:13.726Z,98652.69
2022-11-20T05:33:44.377Z,98660.63
2022-11-20T05:36:14.409Z,98657.47
2022-11-20T05:38:42.715Z,98663.91
2022-11-20T05:41:12.803Z,98671.16
2022-11-20T05:43:42.114Z,98665.59
2022-11-20T05:46:11.535Z,98662.41
2022-11-20T05:48:41.088Z,98675.00
2022-11-20T05:51:10.533Z,98696.91
2022-11-20T05:53:41.377Z,98685.25
2022-11-20T05:56:16.307Z,98695.63
2022-11-20T05:58:43.902Z,98681.19
2022-11-20T06:01:20.835Z,98691.09
2022-11-20T06:03:50.854Z,98691.50
2022-11-20T06:06:21.261Z,98690.78
2022-11-20T06:08:50.103Z,98691.91
2022-11-20T06:11:18.479Z,98700.34
2022-11-20T06:13:49.255Z,98687.56
2022-11-20T06:16:19.470Z,98709.84
2022-11-20T06:18:47.535Z,98701.88
2022-11-20T06:21:19.395Z,98708.66
2022-11-20T06:23:47.983Z,98702.28
2022-11-20T06:26:21.014Z,98714.66
2022-11-20T06:28:48.670Z,98712.28
2022-11-20T06:31:19.190Z,98729.03
2022-11-20T06:33:47.297Z,98715.50
2022-11-20T06:36:19.465Z,98722.66
2022-11-20T06:38:47.525Z,98712.66
2022-11-20T06:41:20.553Z,98719.34
2022-11-20T06:43:47.973Z,98701.81
2022-11-20T06:46:19.902Z,98702.56
2022-11-20T06:48:48.369Z,98694.13
2022-11-20T06:51:16.334Z,98710.84
2022-11-20T06:53:44.338Z,98690.44
2022-11-20T06:56:11.637Z,98708.75
2022-11-20T06:58:39.674Z,98706.72
2022-11-20T07:01:15.332Z,98696.78
2022-11-20T07:03:45.256Z,98699.16
2022-11-20T07:06:12.753Z,98711.97
2022-11-20T07:08:40.067Z,98692.00
2022-11-20T07:11:09.137Z,98711.66
2022-11-20T07:13:36.711Z,98708.91
2022-11-20T07:16:07.403Z,98706.63
2022-11-20T07:18:34.840Z,98714.25
2022-11-20T07:21:07.471Z,98713.63
2022-11-20T07:23:34.893Z,98710.19
2022-11-20T07:26:10.065Z,98738.31
2022-11-20T07:28:37.937Z,98744.06
2022-11-20T07:31:06.158Z,98737.84
2022-11-20T07:33:35.545Z,98753.09
2022-11-20T07:36:04.280Z,98765.53
2022-11-20T07:38:33.047Z,98776.34
2022-11-20T07:41:02.766Z,98774.03
2022-11-20T07:43:30.678Z,98791.22
2022-11-20T07:46:02.791Z,98779.38
2022-11-20T07:48:30.245Z,98782.13
2022-11-20T07:50:58.460Z,98796.69
2022-11-20T07:53:26.725Z,98800.47
2022-11-20T07:55:55.307Z,98801.38
2022-11-20T07:58:23.382Z,98801.72
2022-11-20T08:00:53.605Z,98815.31
2022-11-20T08:03:25.832Z,98814.47
2022-11-20T08:05:53.837Z,98823.59
2022-11-20T08:08:22.109Z,98832.50
2022-11-20T08:10:52.152Z,98817.25
2022-11-20T08:13:38.326Z,98823.41
2022-11-20T08:16:08.142Z,98834.38
2022-11-20T08:18:36.016Z,98798.75
2022-11-20T08:21:05.665Z,98826.84
2022-11-20T08:23:33.776Z,98838.47
2022-11-20T08:26:00.884Z,98840.69
2022-11-20T08:28:28.586Z,98842.13
2022-11-20T08:31:01.147Z,98852.63
2022-11-20T08:33:29.187Z,98864.91
2022-11-20T08:36:03.511Z,98865.28
2022-11-20T08:38:31.657Z,98873.78
2022-11-20T08:41:21.610Z,98879.88
2022-11-20T08:43:49.268Z,98873.34
2022-11-20T08:46:17.558Z,98874.41
2022-11-20T08:48:45.510Z,98874.59
2022-11-20T08:51:17.053Z,98880.78
2022-11-20T08:53:44.227Z,98877.03
2022-11-20T08:56:11.472Z,98888.19
2022-11-20T08:59:02.334Z,98887.75
2022-11-20T09:01:28.597Z,98889.63
2022-11-20T09:03:58.918Z,98880.59
2022-11-20T09:06:27.029Z,98868.78
2022-11-20T09:08:54.999Z,98860.66
2022-11-20T09:11:23.195Z,98864.56
2022-11-20T09:13:53.058Z,98882.09
2022-11-20T09:16:21.081Z,98860.81
2022-11-20T09:18:54.091Z,98865.66
2022-11-20T09:21:34.769Z,98870.56
2022-11-20T09:24:01.886Z,98862.31
2022-11-20T09:26:32.016Z,98863.38
2022-11-20T09:28:59.802Z,98863.72
2022-11-20T09:31:27.287Z,98846.44
2022-11-20T09:33:55.389Z,98844.63
2022-11-20T09:36:22.614Z,98841.41
2022-11-20T09:38:50.341Z,98857.31
2022-11-20T09:41:58.557Z,98856.66
2022-11-20T09:44:50.919Z,98856.66
2022-11-20T09:47:36.934Z,98845.50
2022-11-20T09:50:06.964Z,98861.44
2022-11-20T09:53:12.225Z,98845.25
2022-11-20T09:55:40.385Z,98820.63
2022-11-20T09:58:13.462Z,98852.88
2022-11-20T10:00:40.760Z,98854.13
2022-11-20T10:03:24.769Z,98840.41
2022-11-20T10:05:56.008Z,98834.13
2022-11-20T10:08:32.995Z,98823.22
2022-11-20T10:11:17.920Z,98809.00
2022-11-20T10:14:04.096Z,98812.25
2022-11-20T10:16:31.302Z,98820.31
2022-11-20T10:19:16.894Z,98795.75
2022-11-20T10:21:47.003Z,98829.59
2022-11-20T10:24:26.914Z,98826.94
2022-11-20T10:27:03.793Z,98833.19
2022-11-20T10:29:36.084Z,98816.84
2022-11-20T10:32:11.097Z,98814.16
2022-11-20T10:34:50.390Z,98820.22
2022-11-20T10:37:26.210Z,98803.06
2022-11-20T10:40:32.528Z,98807.84
2022-11-20T10:43:08.846Z,98806.03
2022-11-20T10:45:51.724Z,98818.41
2022-11-20T10:48:29.796Z,98811.69
2022-11-20T10:51:08.740Z,98825.91
2022-11-20T10:54:26.344Z,98823.66
2022-11-20T10:56:58.302Z,98825.25
2022-11-20T11:00:04.347Z,98821.06
2022-11-20T11:02:53.728Z,98811.78
2022-11-20T11:05:36.009Z,98802.91
2022-11-20T11:08:18.729Z,98797.28
2022-11-20T11:10:58.279Z,98804.44
2022-11-20T11:13:32.214Z,98794.06
2022-11-20T11:15:59.195Z,98796.84
2022-11-20T11:18:35.492Z,98787.47
2022-11-20T11:21:11.070Z,98807.06
2022-11-20T11:23:43.142Z,98792.56
2022-11-20T11:26:25.422Z,98809.94
2022-11-20T11:29:05.174Z,98802.09
2022-11-20T11:31:35.951Z,98791.56
2022-11-20T11:34:07.125Z,98802.78
2022-11-20T11:36:36.486Z,98772.03
2022-11-20T11:39:06.753Z,98795.25
2022-11-20T11:41:38.498Z,98795.25
2022-11-20T11:44:38.634Z,98792.78
2022-11-20T11:47:11.003Z,98780.44
2022-11-20T11:49:41.944Z,98776.06
2022-11-20T11:52:09.158Z,98772.19
2022-11-20T11:55:11.512Z,98779.78
2022-11-20T11:57:48.175Z,98773.09
2022-11-20T12:00:21.365Z,98767.44
2022-11-20T12:02:51.550Z,98767.19
2022-11-20T12:05:30.918Z,98778.25
2022-11-20T12:08:24.965Z,98774.06
2022-11-20T12:10:58.253Z,98765.31
2022-11-20T12:13:34.964Z,98772.09
2022-11-20T12:16:06.156Z,98766.94
2022-11-20T12:18:33.562Z,98762.56
2022-11-20T12:21:22.400Z,98764.09
2022-11-20T12:24:08.750Z,98769.38
2022-11-20T12:27:01.723Z,98769.81
2022-11-20T12:29:58.238Z,98772.56
2022-11-20T12:33:07.187Z,98761.84
2022-11-20T12:35:37.147Z,98763.00
2022-11-20T12:38:22.872Z,98779.28
2022-11-20T12:41:47.203Z,98804.75
2022-11-20T12:44:51.517Z,98781.25
2022-11-20T12:47:49.630Z,98786.25
2022-11-20T12:50:26.557Z,98790.38
2022-11-20T12:53:29.247Z,98785.28
2022-11-20T12:56:03.013Z,98805.63
2022-11-20T12:58:58.210Z,98806.53
2022-11-20T13:01:48.881Z,98808.72
2022-11-20T13:04:51.156Z,98820.16
2022-11-20T13:07:19.757Z,98825.25
2022-11-20T13:09:50.963Z,98824.56
2022-11-20T13:12:29.013Z,98828.97
2022-11-20T13:15:26.276Z,98834.72
2022-11-20T13:18:00.150Z,98821.13
2022-11-20T13:20:31.216Z,98833.78
2022-11-20T13:23:01.406Z,98822.75
2022-11-20T13:25:35.829Z,98818.81
2022-11-20T13:28:23.956Z,98814.69
2022-11-20T13:30:56.170Z,98815.13
2022-11-20T13:33:27.798Z,98816.06
2022-11-20T13:36:04.677Z,98823.09
2022-11-20T13:38:52.233Z,98813.66
2022-11-20T13:41:35.772Z,98802.03
2022-11-20T13:44:32.665Z,98802.25
2022-11-20T13:47:02.736Z,98806.28
2022-11-20T13:49:45.923Z,98816.91
2022-11-20T13:52:50.224Z,98816.19
2022-11-20T13:55:35.731Z,98810.09
2022-11-20T13:58:24.743Z,98819.75
2022-11-20T14:00:59.398Z,98821.38
2022-11-20T14:03:58.929Z,98824.59
2022-11-20T14:06:25.307Z,98795.00
2022-11-20T14:08:53.191Z,98815.25
2022-11-20T14:11:25.996Z,98823.44
2022-11-20T14:14:14.346Z,98838.16
2022-11-20T14:16:46.314Z,98836.78
2022-11-20T14:19:22.256Z,98824.13
2022-11-20T14:21:51.749Z,98833.22
2022-11-20T14:24:32.136Z,98825.03
2022-11-20T14:27:00.580Z,98818.03
2022-11-20T14:29:36.317Z,98805.59
2022-11-20T14:32:07.113Z,98797.88
2022-11-20T14:34:43.929Z,98804.19
2022-11-20T14:37:21.456Z,98802.94
2022-11-20T14:39:57.057Z,98796.81
2022-11-20T14:42:32.264Z,98785.53
2022-11-20T14:45:01.440Z,98785.91
2022-11-20T14:47:31.476Z,98796.59
2022-11-20T14:50:01.834Z,98794.88
2022-11-20T14:52:32.122Z,98804.25
2022-11-20T14:55:02.983Z,98803.91
2022-11-20T14:57:32.453Z,98795.03
2022-11-20T15:00:09.287Z,98794.75
2022-11-20T15:02:42.519Z,98784.63
2022-11-20T15:05:10.405Z,98801.22
2022-11-20T15:07:46.919Z,98845.63
2022-11-20T15:10:29.707Z,98869.19
2022-11-20T15:13:19.301Z,98913.59
2022-11-20T15:15:59.222Z,98962.09
2022-11-20T15:18:45.954Z,98961.22
2022-11-20T15:21:15.360Z,98886.22
2022-11-20T15:23:43.306Z,98868.78
2022-11-20T15:26:18.421Z,98873.22
2022-11-20T15:28:51.206Z,98896.34
2022-11-20T15:31:23.716Z,98898.84
2022-11-20T15:34:02.099Z,98882.50
2022-11-20T15:36:31.470Z,98903.91
2022-11-20T15:39:00.993Z,98897.09
2022-11-20T15:41:32.155Z,98865.00
2022-11-20T15:44:01.866Z,98851.03
2022-11-20T15:46:34.064Z,98869.72
2022-11-20T15:49:03.283Z,98858.28
2022-11-20T15:51:38.341Z,98870.94
2022-11-20T15:54:18.782Z,98882.44
2022-11-20T15:56:45.948Z,98891.31
2022-11-20T15:59:13.353Z,98886.47
2022-11-20T16:01:40.750Z,98895.91
2022-11-20T16:04:16.619Z,98889.91
2022-11-20T16:06:44.466Z,98910.63
2022-11-20T16:09:11.954Z,98888.16
2022-11-20T16:11:39.264Z,98894.63
2022-11-20T16:14:29.781Z,98884.38
2022-11-20T16:16:57.042Z,98902.34
2022-11-20T16:19:23.966Z,98898.31
2022-11-20T16:21:51.202Z,98903.16
2022-11-20T16:24:18.194Z,98927.03
2022-11-20T16:26:45.858Z,98920.09
2022-11-20T16:29:13.349Z,98917.00
2022-11-20T16:31:47.211Z,98923.81
2022-11-20T16:34:17.934Z,98938.88
2022-11-20T16:36:46.027Z,98949.09
2022-11-20T16:39:15.827Z,98944.06
2022-11-20T16:41:46.307Z,98931.06
2022-11-20T16:44:13.666Z,98928.38
2022-11-20T16:46:41.004Z,98920.03
2022-11-20T16:49:13.994Z,98904.31
2022-11-20T16:51:41.812Z,98877.19
2022-11-20T16:54:10.210Z,98873.09
2022-11-20T16:56:37.956Z,98862.53
2022-11-20T16:59:05.877Z,98830.78
2022-11-20T17:01:34.413Z,98825.25
2022-11-20T17:04:08.216Z,98818.34
2022-11-20T17:06:39.323Z,98842.81
2022-11-20T17:09:09.643Z,98841.06
2022-11-20T17:11:37.591Z,98849.81
2022-11-20T17:14:07.959Z,98874.50
2022-11-20T17:16:36.470Z,98873.22
2022-11-20T17:19:05.318Z,98889.75
2022-11-20T17:21:37.577Z,98899.19
2022-11-20T17:24:07.163Z,98909.75
2022-11-20T17:26:35.517Z,98900.31
2022-11-20T17:29:06.942Z,98899.19
2022-11-20T17:31:34.653Z,98896.28
2022-11-20T17:34:02.701Z,98881.22
2022-11-20T17:36:30.860Z,98888.69
2022-11-20T17:38:58.535Z,98886.53
2022-11-20T17:41:28.543Z,98892.66
2022-11-20T17:43:58.235Z,98891.38
2022-11-20T17:46:27.846Z,98885.88
2022-11-20T17:48:56.416Z,98829.00
2022-11-20T17:51:25.950Z,98875.66
2022-11-20T17:53:56.218Z,98857.94
2022-11-20T17:56:42.449Z,98858.81
2022-11-20T17:59:13.852Z,98865.63
2022-11-20T18:01:43.261Z,98874.38
2022-11-20T18:04:11.490Z,98864.63
2022-11-20T18:06:38.797Z,98853.56
2022-11-20T18:09:07.509Z,98837.84
2022-11-20T18:11:42.561Z,98837.97
2022-11-20T18:14:36.498Z,98831.19
2022-11-20T18:17:13.144Z,98814.84
2022-11-20T18:20:29.531Z,98807.03
2022-11-20T18:22:58.821Z,98800.59
2022-11-20T18:25:28.137Z,98801.25
2022-11-20T18:27:56.510Z,98826.06
2022-11-20T18:30:23.615Z,98812.56
2022-11-20T18:32:51.068Z,98830.84
2022-11-20T18:35:18.763Z,98830.38
2022-11-20T18:37:45.945Z,98829.56
2022-11-20T18:40:14.108Z,98826.13
2022-11-20T18:42:59.598Z,98831.78
2022-11-20T18:45:29.859Z,98827.34
2022-11-20T18:47:57.444Z,98811.81
2022-11-20T18:50:24.480Z,98815.97
2022-11-20T18:52:52.193Z,98807.50
2022-11-20T18:55:25.254Z,98821.28
2022-11-20T18:57:53.167Z,98813.56
2022-11-20T19:00:20.342Z,98819.88
2022-11-20T19:02:48.510Z,98822.97
2022-11-20T19:05:16.035Z,98827.00
2022-11-20T19:07:43.550Z,98802.19
2022-11-20T19:10:11.383Z,98798.75
2022-11-20T19:12:38.560Z,98788.81
2022-11-20T19:15:06.127Z,98767.06
2022-11-20T19:17:33.854Z,98782.28
2022-11-20T19:20:01.113Z,98782.81
2022-11-20T19:22:28.135Z,98797.06
2022-11-20T19:24:55.770Z,98808.25
2022-11-20T19:27:22.998Z,98802.19
2022-11-20T19:29:50.573Z,98789.19
2022-11-20T19:32:18.065Z,98781.59
2022-11-20T19:34:46.799Z,98774.81
2022-11-20T19:37:13.817Z,98793.56
2022-11-20T19:39:48.586Z,98801.38
2022-11-20T19:42:21.482Z,98793.44
2022-11-20T19:44:48.934Z,98785.16
2022-11-20T19:47:16.217Z,98766.66
2022-11-20T19:49:44.189Z,98784.63
2022-11-20T19:52:14.723Z,98766.09
2022-11-20T19:54:42.642Z,98766.09
2022-11-20T19:57:28.352Z,98771.63
2022-11-20T20:00:11.054Z,98766.53
2022-11-20T20:02:41.529Z,98769.41
2022-11-20T20:05:45.178Z,98770.31
2022-11-20T20:08:17.087Z,98765.34
2022-11-20T20:10:46.044Z,98764.19
2022-11-20T20:13:19.334Z,98762.25
2022-11-20T20:15:50.136Z,98767.06
2022-11-20T20:18:21.891Z,98769.63
2022-11-20T20:20:51.788Z,98772.38
2022-11-20T20:23:23.612Z,98749.97
2022-11-20T20:25:50.678Z,98740.56
2022-11-20T20:28:17.891Z,98726.44
2022-11-20T20:30:45.976Z,98734.84
2022-11-20T20:33:13.690Z,98714.59
2022-11-20T20:35:42.158Z,98726.69
2022-11-20T20:38:09.625Z,98733.56
2022-11-20T20:40:36.717Z,98715.81
2022-11-20T20:43:04.523Z,98729.88
2022-11-20T20:45:32.155Z,98719.03
2022-11-20T20:48:00.322Z,98717.78
2022-11-20T20:50:27.475Z,98720.06
2022-11-20T20:53:02.560Z,98714.88
2022-11-20T20:55:32.134Z,98703.13
2022-11-20T20:58:00.907Z,98701.75
2022-11-20T21:00:30.566Z,98713.69
2022-11-20T21:02:58.482Z,98717.47
2022-11-20T21:05:27.791Z,98706.78
2022-11-20T21:08:14.771Z,98704.50
2022-11-20T21:10:44.810Z,98695.41
2022-11-20T21:13:12.838Z,98679.69
2022-11-20T21:15:43.990Z,98682.22
2022-11-20T21:18:31.983Z,98690.59
2022-11-20T21:21:18.585Z,98690.25
2022-11-20T21:23:51.505Z,98689.91
2022-11-20T21:26:19.524Z,98681.16
2022-11-20T21:28:47.956Z,98684.78
2022-11-20T21:31:20.124Z,98684.31
2022-11-20T21:33:54.910Z,98669.72
2022-11-20T21:36:24.500Z,98667.28
2022-11-20T21:38:54.928Z,98657.41
2022-11-20T21:41:22.325Z,98651.69
2022-11-20T21:44:15.926Z,98641.25
2022-11-20T21:46:41.184Z,98630.22
2022-11-20T21:49:08.842Z,98633.66
2022-11-20T21:51:36.768Z,98621.56
2022-11-20T21:54:03.791Z,98638.13
2022-11-20T21:56:30.944Z,98620.75
2022-11-20T21:58:58.923Z,98608.25
2022-11-20T22:01:29.218Z,98620.00
2022-11-20T22:04:02.282Z,98623.31
2022-11-20T22:06:33.601Z,98614.22
2022-11-20T22:09:02.887Z,98614.34
2022-11-20T22:11:30.341Z,98606.66
2022-11-20T22:14:16.075Z,98592.88
2022-11-20T22:16:43.867Z,98576.00
2022-11-20T22:19:10.927Z,98570.94
2022-11-20T22:21:40.148Z,98564.59
2022-11-20T22:24:07.530Z,98550.72
2022-11-20T22:26:40.121Z,98555.28
2022-11-20T22:29:12.812Z,98541.38
2022-11-20T22:31:40.097Z,98538.28
2022-11-20T22:34:07.372Z,98534.38
2022-11-20T22:36:37.639Z,98524.16
2022-11-20T22:39:06.756Z,98518.66
2022-11-20T22:41:34.182Z,98506.13
2022-11-20T22:44:04.203Z,98505.66
2022-11-20T22:46:33.681Z,98500.03
2022-11-20T22:49:03.350Z,98505.56
2022-11-20T22:51:35.941Z,98494.97
2022-11-20T22:54:04.097Z,98500.25
2022-11-20T22:56:31.822Z,98483.38
2022-11-20T22:58:58.938Z,98480.38
2022-11-20T23:01:37.017Z,98488.75
2022-11-20T23:04:07.097Z,98469.78
2022-11-20T23:06:44.106Z,98459.34
2022-11-20T23:09:12.895Z,98446.44
2022-11-20T23:11:40.361Z,98437.13
2022-11-20T23:14:17.651Z,98431.72
2022-11-20T23:16:44.913Z,98420.44
2022-11-20T23:19:14.395Z,98415.50
2022-11-20T23:21:43.903Z,98385.31
2022-11-20T23:24:11.389Z,98391.47
2022-11-20T23:26:40.633Z,98403.41
2022-11-20T23:29:08.462Z,98391.69
2022-11-20T23:31:36.363Z,98382.94
2022-11-20T23:34:04.687Z,98374.44
2022-11-20T23:36:32.639Z,98342.38
2022-11-20T23:38:59.973Z,98333.03
2022-11-20T23:41:27.018Z,98307.41
2022-11-20T23:43:55.063Z,98292.44
2022-11-20T23:46:23.974Z,98290.28
2022-11-20T23:48:51.378Z,98293.94
2022-11-20T23:51:18.676Z,98291.66
2022-11-20T23:53:45.849Z,98265.00
2022-11-20T23:56:16.250Z,98267.31
2022-11-20T23:58:43.930Z,98268.03
